Weather observations for the past three days for
Tupelo, Tupelo Regional Airport
Metric (Imperial)
Date Time (cdt) Wind (kph) Vis. (km) Weather Sky Cond. Temperature (ºC) Relative Humidity Wind Chill (°C) Heat Index (°C) Pressure Precipitation (cm)
Air Dwpt 6 hour altimeter (cm) sea level (mb) 1 hr 3 hr 6 hr
Max. Min.
04 03:53 Calm 16.09 Fair CLR 10.6 8.9 89% 76.17 1015.3
04 02:53 S 9 16.09 Fair CLR 10.6 8.3 86% 76.17 1015.5
04 01:53 S 9 16.09 Fair CLR 11.1 8.3 83% 76.25 1016.3
04 00:53 S 7 16.09 Fair CLR 11.1 8.9 21.1 11.1 86% 76.3 1017.1
03 23:53 S 9 16.09 Fair CLR 11.7 8.3 80% 76.28 1016.8
03 22:53 S 6 16.09 Fair CLR 13.3 8.9 75% 76.3 1017.2
03 21:53 S 7 16.09 Fair CLR 13.9 8.3 69% 76.33 1017.4
03 20:53 Calm 16.09 Fair CLR 15.6 8.3 62% 76.3 1017.1
03 19:53 Calm 16.09 Fair CLR 17.8 7.2 50% 76.28 1016.6
03 18:53 SW 6 16.09 Fair CLR 21.1 5.6 22.8 19.4 37% 76.28 1016.6
03 17:53 SW 11 16.09 Fair CLR 22.2 4.4 31% 76.3 1017.0
03 16:53 W 9 16.09 Fair CLR 22.2 4.4 31% 76.33 1017.5
03 15:53 Vrbl 11 G 26 16.09 Fair CLR 22.2 5 33% 76.4 1018.6
03 14:53 Calm 16.09 Fair CLR 21.7 5.6 35% 76.48 1019.5
03 13:53 Vrbl 6 16.09 Fair CLR 20.6 3.3 32% 76.58 1020.6
03 12:53 S 13 16.09 Fair CLR 20 5.6 20.6 7.8 39% 76.63 1021.6
03 11:53 Vrbl 6 16.09 Fair CLR 18.3 3.9 39% 76.71 1022.4
03 10:53 Calm 16.09 Fair CLR 17.2 3.9 41% 76.73 1022.8
03 09:53 S 6 16.09 Fair CLR 15.6 5.6 52% 76.73 1022.9
03 08:53 Vrbl 7 16.09 Fair CLR 13.3 6.7 65% 76.73 1022.7
03 07:53 E 7 16.09 Fair CLR 10.6 7.2 80% 76.73 1022.7
03 06:53 Calm 16.09 Fair CLR 7.8 6.7 10.6 6.1 93% 76.68 1022.1
03 05:53 Calm 16.09 Fair CLR 6.7 5.6 93% 76.63 1021.4
03 04:53 N 6 16.09 Fair CLR 6.7 5.6 93% 76.61 1021.0
03 03:53 Calm 16.09 Fair CLR 7.8 6.1 89% 76.58 1020.7
03 02:53 Calm 16.09 Fair CLR 8.9 6.1 83% 76.56 1020.4
03 01:53 NE 6 16.09 Fair CLR 10 5.6 74% 76.56 1020.3
03 00:53 NE 9 16.09 Fair CLR 10.6 5.6 19.4 10.6 71% 76.53 1020.3
02 23:53 NE 15 16.09 Fair CLR 12.2 5.6 64% 76.5 1019.8
02 22:53 NE 13 16.09 Fair CLR 11.1 5.6 69% 76.48 1019.3
02 21:53 N 6 16.09 Fair CLR 12.8 4.4 57% 76.43 1018.6
02 20:53 NW 6 16.09 Fair CLR 15.6 3.9 46% 76.35 1017.8
02 19:53 NW 7 16.09 Fair CLR 17.2 3.3 40% 76.3 1016.9
02 18:53 NW 9 16.09 A Few Clouds FEW100 19.4 3.3 21.7 18.3 35% 76.25 1016.2
02 17:53 NW 17 16.09 Partly Cloudy FEW080 SCT100 20 3.9 35% 76.25 1016.3
02 16:53 Vrbl 9 16.09 Mostly Cloudy BKN100 20 2.8 32% 76.23 1016.1
02 15:53 N 17 16.09 Overcast BKN080 OVC095 19.4 2.8 33% 76.25 1016.4
02 14:53 Vrbl 9 16.09 A Few Clouds FEW095 20 2.8 32% 76.3 1017.0
02 13:53 NW 20 16.09 Mostly Cloudy BKN080 20.6 2.2 30% 76.33 1017.3
02 12:53 N 26 G 41 16.09 Fair CLR 20 1.7 20 8.9 30% 76.38 1017.8
02 11:53 NE 11 16.09 Fair CLR 18.9 3.9 37% 76.38 1018.2
02 10:53 NE 15 16.09 Fair CLR 17.2 3.3 40% 76.43 1018.7
02 09:53 NE 15 16.09 A Few Clouds FEW002 15.6 3.9 46% 76.4 1018.5
02 08:53 N 15 16.09 Fair CLR 13.9 5 55% 76.38 1017.9
02 07:53 N 13 16.09 Fair CLR 11.7 5 64% 76.33 1017.4
02 06:53 N 9 16.09 Fair CLR 8.9 5 13.9 7.8 77% 8 76.3 1017.0
02 05:53 N 9 16.09 Fair CLR 8.9 4.4 74% 8 76.23 1016.0
02 04:53 N 9 16.09 Fair CLR 10.6 4.4 66% 76.2 1015.7
02 03:53 N 11 16.09 Fair CLR 10.6 5 69% 76.2 1015.8
02 02:53 N 11 16.09 Fair CLR 11.7 3.3 57% 76.2 1015.6
02 01:53 N 15 16.09 Fair CLR 12.8 2.8 51% 76.23 1015.9
02 00:53 NE 13 16.09 A Few Clouds FEW120 13.3 4.4 17.2 13.3 55% 76.28 1016.7
01 23:53 N 9 16.09 Fair CLR 13.3 6.1 62% 76.23 1016.0
01 22:53 N 15 16.09 Fair CLR 13.9 6.1 60% 76.15 1015.1
01 21:53 N 17 16.09 Fair CLR 14.4 7.8 65% 76.15 1015.0
01 20:53 N 13 16.09 Fair CLR 15 8.9 67% 76.2 1015.6
01 19:53 N 6 16.09 Fair CLR 15.6 9.4 67% 76.12 1014.7
01 18:53 N 6 16.09 Fair CLR 16.7 10 18.3 16.7 65% 76.1 1014.3
01 17:53 Calm 16.09 Fair CLR 17.8 8.3 54% 76.05 1013.7
01 16:53 Vrbl 7 16.09 Fair CLR 17.8 8.9 56% 76.05 1013.7
01 15:53 NE 17 16.09 Fair CLR 17.8 8.3 54% 76.05 1013.8
01 14:53 N 15 16.09 Fair CLR 17.8 7.8 52% 76.15 1015.0
01 13:53 N 11 16.09 Fair CLR 17.2 7.8 54% 76.25 1016.3
01 12:53 NE 15 16.09 Fair CLR 16.7 7.2 16.7 11.1 54% 76.25 1016.3
01 11:53 NE 9 16.09 Fair CLR 16.1 7.2 56% 76.25 1016.4
01 10:53 N 13 16.09 Fair CLR 15.6 7.8 60% 76.3 1017.0
01 09:53 N 17 16.09 Fair CLR 13.9 7.8 67% 76.28 1016.6
01 08:53 N 13 16.09 Fair CLR 12.2 7.8 75% 76.25 1016.3
01 07:53 N 13 16.09 Fair CLR 11.7 7.8 77% 76.23 1016.1
01 06:53 N 15 16.09 Fair CLR 11.1 8.3 12.2 10.6 83% 76.15 1015.0
01 05:53 N 11 16.09 Fair CLR 11.1 8.3 83% 76.15 1015.2
01 04:53 N 9 16.09 Partly Cloudy SCT120 11.1 8.3 83% 76.1 1014.5
Date Time (cdt) Wind (kph) Vis. (km) Weather Sky Cond. Air Dwpt Max. Min. Relative Humidity Wind Chill (°C) Heat Index (°C) altimeter (cm) sea level (mb) 1 hr 3 hr 6 hr
6 hour
Temperature (ºC) Pressure Precipitation (cm)